sensor_id;sensor_type;location;lat;lon;timestamp;P1;durP1;ratioP1;P2;durP2;ratioP2
55993;SDS011;67425;52.126;20.638;2023-11-19T00:00:21;65.72;;;23.60;;
55993;SDS011;67425;52.126;20.638;2023-11-19T00:02:46;61.97;;;23.40;;
55993;SDS011;67425;52.126;20.638;2023-11-19T00:05:12;54.58;;;21.40;;
55993;SDS011;67425;52.126;20.638;2023-11-19T00:07:38;50.85;;;19.75;;
55993;SDS011;67425;52.126;20.638;2023-11-19T00:10:06;62.55;;;20.63;;
55993;SDS011;67425;52.126;20.638;2023-11-19T00:12:34;37.10;;;15.10;;
55993;SDS011;67425;52.126;20.638;2023-11-19T00:15:00;55.33;;;20.10;;
55993;SDS011;67425;52.126;20.638;2023-11-19T00:17:26;49.00;;;18.73;;
55993;SDS011;67425;52.126;20.638;2023-11-19T00:19:52;63.47;;;22.67;;
55993;SDS011;67425;52.126;20.638;2023-11-19T00:22:17;59.90;;;21.77;;
55993;SDS011;67425;52.126;20.638;2023-11-19T00:24:43;43.95;;;16.70;;
55993;SDS011;67425;52.126;20.638;2023-11-19T00:27:09;47.42;;;19.30;;
55993;SDS011;67425;52.126;20.638;2023-11-19T00:29:35;71.57;;;24.23;;
55993;SDS011;67425;52.126;20.638;2023-11-19T00:32:01;57.97;;;21.35;;
55993;SDS011;67425;52.126;20.638;2023-11-19T00:34:26;62.10;;;21.73;;
55993;SDS011;67425;52.126;20.638;2023-11-19T00:36:52;55.85;;;21.60;;
55993;SDS011;67425;52.126;20.638;2023-11-19T00:39:17;74.60;;;24.58;;
55993;SDS011;67425;52.126;20.638;2023-11-19T00:41:43;73.18;;;24.73;;
55993;SDS011;67425;52.126;20.638;2023-11-19T00:44:08;54.97;;;20.33;;
55993;SDS011;67425;52.126;20.638;2023-11-19T00:46:33;59.90;;;21.83;;
55993;SDS011;67425;52.126;20.638;2023-11-19T00:48:59;56.13;;;20.55;;
55993;SDS011;67425;52.126;20.638;2023-11-19T00:51:24;58.80;;;21.20;;
55993;SDS011;67425;52.126;20.638;2023-11-19T00:53:51;52.65;;;19.67;;
55993;SDS011;67425;52.126;20.638;2023-11-19T00:56:18;56.05;;;23.52;;
55993;SDS011;67425;52.126;20.638;2023-11-19T00:58:44;60.17;;;22.63;;
55993;SDS011;67425;52.126;20.638;2023-11-19T01:01:11;57.88;;;20.65;;
55993;SDS011;67425;52.126;20.638;2023-11-19T01:03:36;56.80;;;22.60;;
55993;SDS011;67425;52.126;20.638;2023-11-19T01:06:02;61.45;;;23.30;;
55993;SDS011;67425;52.126;20.638;2023-11-19T01:08:28;58.83;;;22.70;;
55993;SDS011;67425;52.126;20.638;2023-11-19T01:10:53;64.47;;;23.33;;
55993;SDS011;67425;52.126;20.638;2023-11-19T01:13:18;61.83;;;24.20;;
55993;SDS011;67425;52.126;20.638;2023-11-19T01:15:44;61.08;;;23.73;;
55993;SDS011;67425;52.126;20.638;2023-11-19T01:18:09;59.70;;;23.13;;
55993;SDS011;67425;52.126;20.638;2023-11-19T01:20:35;58.95;;;21.77;;
55993;SDS011;67425;52.126;20.638;2023-11-19T01:23:01;57.35;;;22.02;;
55993;SDS011;67425;52.126;20.638;2023-11-19T01:25:27;61.55;;;23.85;;
55993;SDS011;67425;52.126;20.638;2023-11-19T01:27:52;59.20;;;22.20;;
55993;SDS011;67425;52.126;20.638;2023-11-19T01:30:17;62.97;;;23.67;;
55993;SDS011;67425;52.126;20.638;2023-11-19T01:32:44;63.83;;;23.42;;
55993;SDS011;67425;52.126;20.638;2023-11-19T01:35:10;68.72;;;25.52;;
55993;SDS011;67425;52.126;20.638;2023-11-19T01:37:35;70.85;;;24.58;;
55993;SDS011;67425;52.126;20.638;2023-11-19T01:40:01;86.95;;;28.73;;
55993;SDS011;67425;52.126;20.638;2023-11-19T01:42:28;78.60;;;26.33;;
55993;SDS011;67425;52.126;20.638;2023-11-19T01:44:57;73.10;;;26.77;;
55993;SDS011;67425;52.126;20.638;2023-11-19T01:47:24;69.55;;;25.58;;
55993;SDS011;67425;52.126;20.638;2023-11-19T01:49:53;75.97;;;25.75;;
55993;SDS011;67425;52.126;20.638;2023-11-19T01:52:19;73.18;;;25.55;;
55993;SDS011;67425;52.126;20.638;2023-11-19T01:54:45;80.22;;;27.45;;
55993;SDS011;67425;52.126;20.638;2023-11-19T01:57:12;75.72;;;26.90;;
55993;SDS011;67425;52.126;20.638;2023-11-19T01:59:38;71.57;;;27.65;;
55993;SDS011;67425;52.126;20.638;2023-11-19T02:02:04;86.13;;;27.13;;
55993;SDS011;67425;52.126;20.638;2023-11-19T02:04:30;69.78;;;27.30;;
55993;SDS011;67425;52.126;20.638;2023-11-19T02:06:57;71.72;;;25.77;;
55993;SDS011;67425;52.126;20.638;2023-11-19T02:09:23;65.00;;;27.02;;
55993;SDS011;67425;52.126;20.638;2023-11-19T02:11:48;81.55;;;26.05;;
55993;SDS011;67425;52.126;20.638;2023-11-19T02:14:20;73.45;;;25.92;;
55993;SDS011;67425;52.126;20.638;2023-11-19T02:16:50;67.07;;;27.17;;
55993;SDS011;67425;52.126;20.638;2023-11-19T02:19:16;75.13;;;26.88;;
55993;SDS011;67425;52.126;20.638;2023-11-19T02:21:44;77.13;;;26.45;;
55993;SDS011;67425;52.126;20.638;2023-11-19T02:24:10;82.07;;;26.90;;
55993;SDS011;67425;52.126;20.638;2023-11-19T02:26:40;77.47;;;27.55;;
55993;SDS011;67425;52.126;20.638;2023-11-19T02:29:06;70.53;;;26.80;;
55993;SDS011;67425;52.126;20.638;2023-11-19T02:31:32;66.15;;;25.23;;
55993;SDS011;67425;52.126;20.638;2023-11-19T02:34:00;71.05;;;23.77;;
55993;SDS011;67425;52.126;20.638;2023-11-19T02:36:27;69.68;;;25.05;;
55993;SDS011;67425;52.126;20.638;2023-11-19T02:38:53;75.95;;;25.15;;
55993;SDS011;67425;52.126;20.638;2023-11-19T02:41:18;66.65;;;24.63;;
55993;SDS011;67425;52.126;20.638;2023-11-19T02:43:44;62.40;;;21.70;;
55993;SDS011;67425;52.126;20.638;2023-11-19T02:46:09;59.22;;;21.95;;
55993;SDS011;67425;52.126;20.638;2023-11-19T02:48:35;59.47;;;22.20;;
55993;SDS011;67425;52.126;20.638;2023-11-19T02:51:01;57.17;;;21.92;;
55993;SDS011;67425;52.126;20.638;2023-11-19T02:53:28;62.67;;;23.63;;
55993;SDS011;67425;52.126;20.638;2023-11-19T02:55:54;58.22;;;22.20;;
55993;SDS011;67425;52.126;20.638;2023-11-19T02:58:26;55.30;;;21.80;;
55993;SDS011;67425;52.126;20.638;2023-11-19T03:00:53;64.28;;;22.00;;
55993;SDS011;67425;52.126;20.638;2023-11-19T03:03:26;59.00;;;21.70;;
55993;SDS011;67425;52.126;20.638;2023-11-19T03:06:04;65.28;;;22.85;;
55993;SDS011;67425;52.126;20.638;2023-11-19T03:08:29;63.38;;;19.92;;
55993;SDS011;67425;52.126;20.638;2023-11-19T03:10:55;67.47;;;22.02;;
55993;SDS011;67425;52.126;20.638;2023-11-19T03:13:20;63.13;;;21.52;;
55993;SDS011;67425;52.126;20.638;2023-11-19T03:15:46;55.88;;;21.17;;
55993;SDS011;67425;52.126;20.638;2023-11-19T03:18:12;48.55;;;20.30;;
55993;SDS011;67425;52.126;20.638;2023-11-19T03:20:37;64.07;;;22.58;;
55993;SDS011;67425;52.126;20.638;2023-11-19T03:23:03;54.80;;;20.63;;
55993;SDS011;67425;52.126;20.638;2023-11-19T03:25:28;61.45;;;19.58;;
55993;SDS011;67425;52.126;20.638;2023-11-19T03:28:01;44.23;;;17.60;;
55993;SDS011;67425;52.126;20.638;2023-11-19T03:30:28;42.22;;;18.92;;
55993;SDS011;67425;52.126;20.638;2023-11-19T03:32:54;47.90;;;18.25;;
55993;SDS011;67425;52.126;20.638;2023-11-19T03:35:20;56.17;;;19.58;;
55993;SDS011;67425;52.126;20.638;2023-11-19T03:37:45;56.72;;;21.23;;
55993;SDS011;67425;52.126;20.638;2023-11-19T03:40:11;42.55;;;19.33;;
55993;SDS011;67425;52.126;20.638;2023-11-19T03:42:37;53.10;;;20.05;;
55993;SDS011;67425;52.126;20.638;2023-11-19T03:45:02;55.53;;;19.30;;
55993;SDS011;67425;52.126;20.638;2023-11-19T03:47:30;47.15;;;18.67;;
55993;SDS011;67425;52.126;20.638;2023-11-19T03:49:55;59.67;;;19.50;;
55993;SDS011;67425;52.126;20.638;2023-11-19T03:52:21;47.70;;;18.98;;
55993;SDS011;67425;52.126;20.638;2023-11-19T03:54:46;48.53;;;18.50;;
55993;SDS011;67425;52.126;20.638;2023-11-19T03:57:12;50.90;;;20.67;;
55993;SDS011;67425;52.126;20.638;2023-11-19T03:59:38;48.15;;;19.48;;
55993;SDS011;67425;52.126;20.638;2023-11-19T04:02:04;56.58;;;20.20;;
55993;SDS011;67425;52.126;20.638;2023-11-19T04:04:29;56.47;;;20.25;;
55993;SDS011;67425;52.126;20.638;2023-11-19T04:06:55;58.67;;;18.55;;
55993;SDS011;67425;52.126;20.638;2023-11-19T04:09:21;54.85;;;18.88;;
55993;SDS011;67425;52.126;20.638;2023-11-19T04:11:46;55.53;;;19.73;;
55993;SDS011;67425;52.126;20.638;2023-11-19T04:14:12;50.72;;;19.15;;
55993;SDS011;67425;52.126;20.638;2023-11-19T04:16:38;50.92;;;18.67;;
55993;SDS011;67425;52.126;20.638;2023-11-19T04:19:04;47.30;;;19.17;;
55993;SDS011;67425;52.126;20.638;2023-11-19T04:21:29;55.65;;;19.10;;
55993;SDS011;67425;52.126;20.638;2023-11-19T04:23:55;51.17;;;17.67;;
55993;SDS011;67425;52.126;20.638;2023-11-19T04:26:21;51.03;;;18.27;;
55993;SDS011;67425;52.126;20.638;2023-11-19T04:28:46;46.97;;;19.15;;
55993;SDS011;67425;52.126;20.638;2023-11-19T04:31:11;60.97;;;19.98;;
55993;SDS011;67425;52.126;20.638;2023-11-19T04:33:37;56.35;;;19.98;;
55993;SDS011;67425;52.126;20.638;2023-11-19T04:36:02;50.67;;;19.13;;
55993;SDS011;67425;52.126;20.638;2023-11-19T04:38:28;53.15;;;18.92;;
55993;SDS011;67425;52.126;20.638;2023-11-19T04:40:53;50.85;;;18.10;;
55993;SDS011;67425;52.126;20.638;2023-11-19T04:43:18;65.68;;;22.30;;
55993;SDS011;67425;52.126;20.638;2023-11-19T04:45:45;55.47;;;20.88;;
55993;SDS011;67425;52.126;20.638;2023-11-19T04:48:11;77.05;;;23.20;;
55993;SDS011;67425;52.126;20.638;2023-11-19T04:50:37;48.63;;;20.45;;
55993;SDS011;67425;52.126;20.638;2023-11-19T04:53:02;54.08;;;19.13;;
55993;SDS011;67425;52.126;20.638;2023-11-19T04:55:28;47.40;;;18.33;;
55993;SDS011;67425;52.126;20.638;2023-11-19T04:57:54;45.25;;;17.42;;
55993;SDS011;67425;52.126;20.638;2023-11-19T05:00:19;43.15;;;18.00;;
55993;SDS011;67425;52.126;20.638;2023-11-19T05:02:46;42.83;;;17.42;;
55993;SDS011;67425;52.126;20.638;2023-11-19T05:05:11;53.53;;;17.42;;
55993;SDS011;67425;52.126;20.638;2023-11-19T05:07:37;48.17;;;18.42;;
55993;SDS011;67425;52.126;20.638;2023-11-19T05:10:03;43.67;;;17.33;;
55993;SDS011;67425;52.126;20.638;2023-11-19T05:12:31;47.50;;;17.70;;
55993;SDS011;67425;52.126;20.638;2023-11-19T05:14:56;48.00;;;18.30;;
55993;SDS011;67425;52.126;20.638;2023-11-19T05:17:22;45.05;;;17.52;;
55993;SDS011;67425;52.126;20.638;2023-11-19T05:19:48;51.30;;;18.30;;
55993;SDS011;67425;52.126;20.638;2023-11-19T05:22:13;48.38;;;17.23;;
55993;SDS011;67425;52.126;20.638;2023-11-19T05:24:39;46.58;;;18.60;;
55993;SDS011;67425;52.126;20.638;2023-11-19T05:27:05;49.80;;;18.58;;
55993;SDS011;67425;52.126;20.638;2023-11-19T05:29:31;54.80;;;17.33;;
55993;SDS011;67425;52.126;20.638;2023-11-19T05:31:57;46.70;;;16.88;;
55993;SDS011;67425;52.126;20.638;2023-11-19T05:34:22;49.55;;;17.77;;
55993;SDS011;67425;52.126;20.638;2023-11-19T05:36:48;44.90;;;18.48;;
55993;SDS011;67425;52.126;20.638;2023-11-19T05:39:13;48.33;;;17.08;;
55993;SDS011;67425;52.126;20.638;2023-11-19T05:41:39;42.47;;;16.92;;
55993;SDS011;67425;52.126;20.638;2023-11-19T05:44:05;43.10;;;15.45;;
55993;SDS011;67425;52.126;20.638;2023-11-19T05:46:30;43.80;;;17.45;;
55993;SDS011;67425;52.126;20.638;2023-11-19T05:48:55;54.72;;;18.05;;
55993;SDS011;67425;52.126;20.638;2023-11-19T05:51:21;33.13;;;15.38;;
55993;SDS011;67425;52.126;20.638;2023-11-19T05:53:48;39.95;;;16.70;;
55993;SDS011;67425;52.126;20.638;2023-11-19T05:56:15;46.30;;;17.15;;
55993;SDS011;67425;52.126;20.638;2023-11-19T05:58:46;44.10;;;16.45;;
55993;SDS011;67425;52.126;20.638;2023-11-19T06:01:13;45.90;;;18.10;;
55993;SDS011;67425;52.126;20.638;2023-11-19T06:03:38;49.65;;;19.05;;
55993;SDS011;67425;52.126;20.638;2023-11-19T06:06:04;40.40;;;16.45;;
55993;SDS011;67425;52.126;20.638;2023-11-19T06:08:30;35.65;;;15.48;;
55993;SDS011;67425;52.126;20.638;2023-11-19T06:10:55;41.08;;;16.27;;
55993;SDS011;67425;52.126;20.638;2023-11-19T06:13:21;38.17;;;16.08;;
55993;SDS011;67425;52.126;20.638;2023-11-19T06:15:46;38.65;;;14.45;;
55993;SDS011;67425;52.126;20.638;2023-11-19T06:18:12;44.28;;;18.23;;
55993;SDS011;67425;52.126;20.638;2023-11-19T06:20:37;40.13;;;15.95;;
55993;SDS011;67425;52.126;20.638;2023-11-19T06:23:03;38.17;;;14.73;;
55993;SDS011;67425;52.126;20.638;2023-11-19T06:25:28;37.05;;;14.85;;
55993;SDS011;67425;52.126;20.638;2023-11-19T06:27:54;31.65;;;14.05;;
55993;SDS011;67425;52.126;20.638;2023-11-19T06:30:19;34.70;;;13.55;;
55993;SDS011;67425;52.126;20.638;2023-11-19T06:32:45;39.65;;;15.20;;
55993;SDS011;67425;52.126;20.638;2023-11-19T06:35:11;38.97;;;14.95;;
55993;SDS011;67425;52.126;20.638;2023-11-19T06:37:39;35.75;;;14.68;;
55993;SDS011;67425;52.126;20.638;2023-11-19T06:40:05;31.15;;;14.02;;
55993;SDS011;67425;52.126;20.638;2023-11-19T06:42:31;33.05;;;13.45;;
55993;SDS011;67425;52.126;20.638;2023-11-19T06:44:56;27.23;;;12.48;;
55993;SDS011;67425;52.126;20.638;2023-11-19T06:47:24;35.63;;;14.13;;
55993;SDS011;67425;52.126;20.638;2023-11-19T06:49:52;29.23;;;12.60;;
55993;SDS011;67425;52.126;20.638;2023-11-19T06:52:17;30.20;;;12.57;;
55993;SDS011;67425;52.126;20.638;2023-11-19T06:54:42;29.88;;;11.60;;
55993;SDS011;67425;52.126;20.638;2023-11-19T06:57:08;32.42;;;11.52;;
55993;SDS011;67425;52.126;20.638;2023-11-19T06:59:34;24.90;;;12.50;;
55993;SDS011;67425;52.126;20.638;2023-11-19T07:01:59;25.50;;;10.70;;
55993;SDS011;67425;52.126;20.638;2023-11-19T07:04:25;23.38;;;11.38;;
55993;SDS011;67425;52.126;20.638;2023-11-19T07:06:50;26.98;;;12.20;;
55993;SDS011;67425;52.126;20.638;2023-11-19T07:09:17;23.65;;;10.95;;
55993;SDS011;67425;52.126;20.638;2023-11-19T07:11:43;26.13;;;11.80;;
55993;SDS011;67425;52.126;20.638;2023-11-19T07:14:10;21.92;;;9.25;;
55993;SDS011;67425;52.126;20.638;2023-11-19T07:16:36;20.58;;;10.55;;
55993;SDS011;67425;52.126;20.638;2023-11-19T07:19:03;23.48;;;11.38;;
55993;SDS011;67425;52.126;20.638;2023-11-19T07:21:30;21.77;;;11.18;;
55993;SDS011;67425;52.126;20.638;2023-11-19T07:23:56;18.00;;;9.30;;
55993;SDS011;67425;52.126;20.638;2023-11-19T07:26:21;24.98;;;11.35;;
55993;SDS011;67425;52.126;20.638;2023-11-19T07:28:48;22.40;;;10.38;;
55993;SDS011;67425;52.126;20.638;2023-11-19T07:31:13;16.83;;;9.10;;
55993;SDS011;67425;52.126;20.638;2023-11-19T07:33:39;27.77;;;10.38;;
55993;SDS011;67425;52.126;20.638;2023-11-19T07:36:07;22.50;;;10.40;;
55993;SDS011;67425;52.126;20.638;2023-11-19T07:38:33;19.73;;;9.38;;
55993;SDS011;67425;52.126;20.638;2023-11-19T07:40:59;21.63;;;10.60;;
55993;SDS011;67425;52.126;20.638;2023-11-19T07:43:24;21.33;;;10.18;;
55993;SDS011;67425;52.126;20.638;2023-11-19T07:45:49;20.35;;;11.45;;
55993;SDS011;67425;52.126;20.638;2023-11-19T07:48:15;17.75;;;9.50;;
55993;SDS011;67425;52.126;20.638;2023-11-19T07:50:40;18.02;;;9.57;;
55993;SDS011;67425;52.126;20.638;2023-11-19T07:53:09;19.60;;;10.00;;
55993;SDS011;67425;52.126;20.638;2023-11-19T07:55:34;18.58;;;9.77;;
55993;SDS011;67425;52.126;20.638;2023-11-19T07:58:00;22.58;;;10.88;;
55993;SDS011;67425;52.126;20.638;2023-11-19T08:00:26;22.58;;;9.80;;
55993;SDS011;67425;52.126;20.638;2023-11-19T08:02:51;17.83;;;9.60;;
55993;SDS011;67425;52.126;20.638;2023-11-19T08:05:17;19.58;;;10.60;;
55993;SDS011;67425;52.126;20.638;2023-11-19T08:07:42;22.55;;;10.60;;
55993;SDS011;67425;52.126;20.638;2023-11-19T08:10:08;17.30;;;9.95;;
55993;SDS011;67425;52.126;20.638;2023-11-19T08:12:35;23.38;;;10.77;;
55993;SDS011;67425;52.126;20.638;2023-11-19T08:15:01;18.40;;;10.23;;
55993;SDS011;67425;52.126;20.638;2023-11-19T08:17:27;21.75;;;11.05;;
55993;SDS011;67425;52.126;20.638;2023-11-19T08:19:52;25.77;;;10.90;;
55993;SDS011;67425;52.126;20.638;2023-11-19T08:22:18;22.45;;;10.60;;
55993;SDS011;67425;52.126;20.638;2023-11-19T08:24:43;24.98;;;11.15;;
55993;SDS011;67425;52.126;20.638;2023-11-19T08:27:08;22.65;;;11.05;;
55993;SDS011;67425;52.126;20.638;2023-11-19T08:29:34;29.73;;;11.40;;
55993;SDS011;67425;52.126;20.638;2023-11-19T08:32:02;19.95;;;10.90;;
55993;SDS011;67425;52.126;20.638;2023-11-19T08:34:28;19.50;;;9.60;;
55993;SDS011;67425;52.126;20.638;2023-11-19T08:36:54;25.38;;;11.20;;
55993;SDS011;67425;52.126;20.638;2023-11-19T08:39:19;20.98;;;10.43;;
55993;SDS011;67425;52.126;20.638;2023-11-19T08:41:46;20.15;;;10.18;;
55993;SDS011;67425;52.126;20.638;2023-11-19T08:44:12;19.85;;;9.85;;
55993;SDS011;67425;52.126;20.638;2023-11-19T08:46:38;21.65;;;10.60;;
55993;SDS011;67425;52.126;20.638;2023-11-19T08:49:04;20.45;;;10.85;;
55993;SDS011;67425;52.126;20.638;2023-11-19T08:51:30;20.73;;;10.05;;
55993;SDS011;67425;52.126;20.638;2023-11-19T08:53:56;21.00;;;9.95;;
55993;SDS011;67425;52.126;20.638;2023-11-19T08:56:22;22.77;;;10.27;;
55993;SDS011;67425;52.126;20.638;2023-11-19T08:58:48;22.90;;;11.90;;
55993;SDS011;67425;52.126;20.638;2023-11-19T09:01:13;19.00;;;8.80;;
55993;SDS011;67425;52.126;20.638;2023-11-19T09:03:38;19.35;;;10.10;;
55993;SDS011;67425;52.126;20.638;2023-11-19T09:06:04;24.95;;;10.70;;
55993;SDS011;67425;52.126;20.638;2023-11-19T09:08:29;21.95;;;11.13;;
55993;SDS011;67425;52.126;20.638;2023-11-19T09:10:55;22.58;;;10.90;;
55993;SDS011;67425;52.126;20.638;2023-11-19T09:13:20;23.40;;;11.55;;
55993;SDS011;67425;52.126;20.638;2023-11-19T09:15:45;25.15;;;12.45;;
55993;SDS011;67425;52.126;20.638;2023-11-19T09:18:11;19.73;;;11.07;;
55993;SDS011;67425;52.126;20.638;2023-11-19T09:20:36;21.40;;;10.98;;
55993;SDS011;67425;52.126;20.638;2023-11-19T09:23:03;27.80;;;11.57;;
55993;SDS011;67425;52.126;20.638;2023-11-19T09:25:30;22.83;;;11.10;;
55993;SDS011;67425;52.126;20.638;2023-11-19T09:27:56;24.73;;;12.00;;
55993;SDS011;67425;52.126;20.638;2023-11-19T09:30:21;25.13;;;11.55;;
55993;SDS011;67425;52.126;20.638;2023-11-19T09:32:47;29.02;;;11.77;;
55993;SDS011;67425;52.126;20.638;2023-11-19T09:35:13;23.08;;;10.55;;
55993;SDS011;67425;52.126;20.638;2023-11-19T09:37:39;21.40;;;11.02;;
55993;SDS011;67425;52.126;20.638;2023-11-19T09:40:05;21.58;;;10.43;;
55993;SDS011;67425;52.126;20.638;2023-11-19T09:42:36;20.70;;;11.65;;
55993;SDS011;67425;52.126;20.638;2023-11-19T09:45:12;23.50;;;12.00;;
55993;SDS011;67425;52.126;20.638;2023-11-19T09:47:40;24.33;;;11.52;;
55993;SDS011;67425;52.126;20.638;2023-11-19T09:50:08;25.92;;;12.23;;
55993;SDS011;67425;52.126;20.638;2023-11-19T09:52:35;23.98;;;12.02;;
55993;SDS011;67425;52.126;20.638;2023-11-19T09:55:00;30.55;;;11.75;;
55993;SDS011;67425;52.126;20.638;2023-11-19T09:57:26;25.58;;;12.55;;
55993;SDS011;67425;52.126;20.638;2023-11-19T09:59:54;21.42;;;10.75;;
55993;SDS011;67425;52.126;20.638;2023-11-19T10:02:19;23.05;;;12.05;;
55993;SDS011;67425;52.126;20.638;2023-11-19T10:04:45;24.52;;;11.57;;
55993;SDS011;67425;52.126;20.638;2023-11-19T10:07:12;23.88;;;10.90;;
55993;SDS011;67425;52.126;20.638;2023-11-19T10:09:37;31.80;;;13.60;;
55993;SDS011;67425;52.126;20.638;2023-11-19T10:12:03;35.70;;;13.18;;
55993;SDS011;67425;52.126;20.638;2023-11-19T10:14:29;28.98;;;12.30;;
55993;SDS011;67425;52.126;20.638;2023-11-19T10:16:56;22.73;;;11.02;;
55993;SDS011;67425;52.126;20.638;2023-11-19T10:19:22;22.13;;;11.25;;
55993;SDS011;67425;52.126;20.638;2023-11-19T10:21:47;22.98;;;11.55;;
55993;SDS011;67425;52.126;20.638;2023-11-19T10:24:13;29.27;;;11.93;;
55993;SDS011;67425;52.126;20.638;2023-11-19T10:26:38;20.42;;;9.07;;
55993;SDS011;67425;52.126;20.638;2023-11-19T10:29:05;22.33;;;11.43;;
55993;SDS011;67425;52.126;20.638;2023-11-19T10:31:31;23.92;;;11.38;;
55993;SDS011;67425;52.126;20.638;2023-11-19T10:33:56;23.02;;;11.25;;
55993;SDS011;67425;52.126;20.638;2023-11-19T10:36:22;25.45;;;11.30;;
55993;SDS011;67425;52.126;20.638;2023-11-19T10:38:52;24.92;;;12.20;;
55993;SDS011;67425;52.126;20.638;2023-11-19T10:41:29;27.42;;;12.05;;
55993;SDS011;67425;52.126;20.638;2023-11-19T10:43:55;24.83;;;11.30;;
55993;SDS011;67425;52.126;20.638;2023-11-19T10:46:20;25.30;;;10.32;;
55993;SDS011;67425;52.126;20.638;2023-11-19T10:48:48;19.10;;;9.45;;
55993;SDS011;67425;52.126;20.638;2023-11-19T10:51:13;26.98;;;9.57;;
55993;SDS011;67425;52.126;20.638;2023-11-19T10:53:48;31.42;;;13.07;;
55993;SDS011;67425;52.126;20.638;2023-11-19T10:56:15;24.33;;;11.68;;
55993;SDS011;67425;52.126;20.638;2023-11-19T10:58:44;26.98;;;12.55;;
55993;SDS011;67425;52.126;20.638;2023-11-19T11:01:16;21.58;;;10.95;;
55993;SDS011;67425;52.126;20.638;2023-11-19T11:03:46;28.20;;;11.60;;
55993;SDS011;67425;52.126;20.638;2023-11-19T11:06:12;31.45;;;13.82;;
55993;SDS011;67425;52.126;20.638;2023-11-19T11:08:38;27.20;;;13.32;;
55993;SDS011;67425;52.126;20.638;2023-11-19T11:11:04;29.02;;;12.65;;
55993;SDS011;67425;52.126;20.638;2023-11-19T11:13:31;29.88;;;12.32;;
55993;SDS011;67425;52.126;20.638;2023-11-19T11:15:57;30.95;;;12.68;;
55993;SDS011;67425;52.126;20.638;2023-11-19T11:18:23;22.77;;;10.50;;
55993;SDS011;67425;52.126;20.638;2023-11-19T11:20:52;32.28;;;13.13;;
55993;SDS011;67425;52.126;20.638;2023-11-19T11:29:00;26.92;;;12.48;;
55993;SDS011;67425;52.126;20.638;2023-11-19T11:37:07;23.30;;;11.32;;
55993;SDS011;67425;52.126;20.638;2023-11-19T11:40:04;26.17;;;12.40;;
55993;SDS011;67425;52.126;20.638;2023-11-19T11:42:35;23.17;;;11.60;;
55993;SDS011;67425;52.126;20.638;2023-11-19T11:50:11;23.77;;;11.77;;
55993;SDS011;67425;52.126;20.638;2023-11-19T11:58:12;21.20;;;10.70;;
55993;SDS011;67425;52.126;20.638;2023-11-19T12:00:39;24.77;;;11.93;;
55993;SDS011;67425;52.126;20.638;2023-11-19T12:03:06;25.58;;;11.82;;
55993;SDS011;67425;52.126;20.638;2023-11-19T12:05:33;27.60;;;11.82;;
55993;SDS011;67425;52.126;20.638;2023-11-19T12:08:04;24.33;;;12.65;;
55993;SDS011;67425;52.126;20.638;2023-11-19T12:10:32;23.73;;;12.10;;
55993;SDS011;67425;52.126;20.638;2023-11-19T12:13:03;29.77;;;12.95;;
55993;SDS011;67425;52.126;20.638;2023-11-19T12:15:32;34.53;;;13.43;;
55993;SDS011;67425;52.126;20.638;2023-11-19T12:17:58;26.35;;;12.45;;
55993;SDS011;67425;52.126;20.638;2023-11-19T12:20:24;26.85;;;13.18;;
55993;SDS011;67425;52.126;20.638;2023-11-19T12:22:51;33.22;;;13.98;;
55993;SDS011;67425;52.126;20.638;2023-11-19T12:25:17;30.73;;;14.35;;
55993;SDS011;67425;52.126;20.638;2023-11-19T12:27:47;38.42;;;16.90;;
55993;SDS011;67425;52.126;20.638;2023-11-19T12:30:17;29.20;;;14.52;;
55993;SDS011;67425;52.126;20.638;2023-11-19T12:32:52;32.03;;;15.40;;
55993;SDS011;67425;52.126;20.638;2023-11-19T12:35:18;32.25;;;15.05;;
55993;SDS011;67425;52.126;20.638;2023-11-19T12:40:14;28.10;;;13.23;;
55993;SDS011;67425;52.126;20.638;2023-11-19T12:42:47;32.78;;;15.15;;
55993;SDS011;67425;52.126;20.638;2023-11-19T12:45:19;30.60;;;13.93;;
55993;SDS011;67425;52.126;20.638;2023-11-19T12:47:46;33.40;;;15.20;;
55993;SDS011;67425;52.126;20.638;2023-11-19T12:50:13;30.83;;;13.55;;
55993;SDS011;67425;52.126;20.638;2023-11-19T12:52:39;31.05;;;14.48;;
55993;SDS011;67425;52.126;20.638;2023-11-19T12:55:05;34.20;;;15.57;;
55993;SDS011;67425;52.126;20.638;2023-11-19T12:57:49;31.83;;;13.88;;
55993;SDS011;67425;52.126;20.638;2023-11-19T13:00:18;25.52;;;13.52;;
55993;SDS011;67425;52.126;20.638;2023-11-19T13:02:48;33.72;;;13.52;;
55993;SDS011;67425;52.126;20.638;2023-11-19T13:05:27;34.30;;;13.80;;
55993;SDS011;67425;52.126;20.638;2023-11-19T13:08:07;29.42;;;13.68;;
55993;SDS011;67425;52.126;20.638;2023-11-19T13:10:34;30.33;;;11.98;;
55993;SDS011;67425;52.126;20.638;2023-11-19T13:13:16;34.72;;;14.93;;
55993;SDS011;67425;52.126;20.638;2023-11-19T13:15:41;29.55;;;14.63;;
55993;SDS011;67425;52.126;20.638;2023-11-19T13:18:07;29.33;;;13.25;;
55993;SDS011;67425;52.126;20.638;2023-11-19T13:20:33;30.90;;;13.45;;
55993;SDS011;67425;52.126;20.638;2023-11-19T13:22:59;28.98;;;13.80;;
55993;SDS011;67425;52.126;20.638;2023-11-19T13:25:26;29.25;;;13.43;;
55993;SDS011;67425;52.126;20.638;2023-11-19T13:27:53;29.00;;;13.85;;
55993;SDS011;67425;52.126;20.638;2023-11-19T13:30:19;26.88;;;13.38;;
55993;SDS011;67425;52.126;20.638;2023-11-19T13:32:45;30.25;;;13.75;;
55993;SDS011;67425;52.126;20.638;2023-11-19T13:35:11;34.17;;;15.38;;
55993;SDS011;67425;52.126;20.638;2023-11-19T13:37:37;35.20;;;14.50;;
55993;SDS011;67425;52.126;20.638;2023-11-19T13:40:03;30.80;;;14.57;;
55993;SDS011;67425;52.126;20.638;2023-11-19T13:42:29;34.30;;;13.77;;
55993;SDS011;67425;52.126;20.638;2023-11-19T13:44:54;23.92;;;12.30;;
55993;SDS011;67425;52.126;20.638;2023-11-19T13:47:21;34.88;;;15.25;;
55993;SDS011;67425;52.126;20.638;2023-11-19T13:49:46;33.97;;;13.65;;
55993;SDS011;67425;52.126;20.638;2023-11-19T13:52:12;35.90;;;14.77;;
55993;SDS011;67425;52.126;20.638;2023-11-19T13:54:37;30.63;;;13.77;;
55993;SDS011;67425;52.126;20.638;2023-11-19T13:57:03;30.48;;;14.23;;
55993;SDS011;67425;52.126;20.638;2023-11-19T13:59:29;32.58;;;14.93;;
55993;SDS011;67425;52.126;20.638;2023-11-19T14:01:56;26.42;;;14.48;;
55993;SDS011;67425;52.126;20.638;2023-11-19T14:04:21;39.85;;;15.63;;
55993;SDS011;67425;52.126;20.638;2023-11-19T14:06:46;29.88;;;14.07;;
55993;SDS011;67425;52.126;20.638;2023-11-19T14:09:12;31.65;;;13.80;;
55993;SDS011;67425;52.126;20.638;2023-11-19T14:11:37;31.20;;;15.63;;
55993;SDS011;67425;52.126;20.638;2023-11-19T14:14:03;31.42;;;15.95;;
55993;SDS011;67425;52.126;20.638;2023-11-19T14:16:28;27.65;;;12.98;;
55993;SDS011;67425;52.126;20.638;2023-11-19T14:18:54;31.75;;;15.13;;
55993;SDS011;67425;52.126;20.638;2023-11-19T14:21:19;37.08;;;16.65;;
55993;SDS011;67425;52.126;20.638;2023-11-19T14:23:45;39.10;;;16.45;;
55993;SDS011;67425;52.126;20.638;2023-11-19T14:26:11;37.33;;;15.55;;
55993;SDS011;67425;52.126;20.638;2023-11-19T14:28:37;37.33;;;15.88;;